Time;durP1;ratioP1;P1;durP2;ratioP2;P2;SDS_P1;SDS_P2;PMS_P1;PMS_P2;Temp;Humidity;BMP_temperature;BMP_pressure;BME280_temperature;BME280_humidity;BME280_pressure;Samples;Min_cycle;Max_cycle;Signal;HPM_P1;HPM_P2
2024/02/20 00:00:41;;;;;;;0.50;0.50;;;4.80;99.90;;;;;;2053133;28;20229;-75
2024/02/20 00:01:42;;;;;;;0.70;0.70;;;4.80;99.90;;;;;;2057974;28;20229;-72
2024/02/20 00:02:43;;;;;;;0.70;0.70;;;4.80;99.90;;;;;;2051776;28;20243;-73
2024/02/20 00:03:44;;;;;;;0.95;0.80;;;4.90;99.90;;;;;;2047555;28;20248;-71
2024/02/20 00:04:45;;;;;;;0.70;0.70;;;4.80;99.90;;;;;;2047463;28;20773;-75
2024/02/20 00:05:45;;;;;;;1.00;0.70;;;4.80;99.90;;;;;;2047325;28;20369;-75
2024/02/20 00:06:46;;;;;;;0.80;0.80;;;4.80;99.90;;;;;;2046355;29;20235;-75
2024/02/20 00:07:47;;;;;;;1.20;0.90;;;4.70;99.90;;;;;;2046686;28;20281;-74
2024/02/20 00:08:48;;;;;;;1.07;0.80;;;4.70;99.90;;;;;;2043405;28;20278;-74
2024/02/20 00:09:48;;;;;;;0.67;0.67;;;4.70;99.90;;;;;;2043269;29;20503;-73
2024/02/20 00:10:50;;;;;;;1.00;0.90;;;4.80;99.90;;;;;;2037407;29;20224;-73
2024/02/20 00:11:51;;;;;;;1.45;0.80;;;4.70;99.90;;;;;;2052966;28;20235;-72
2024/02/20 00:12:51;;;;;;;0.83;0.80;;;4.70;99.90;;;;;;2045974;28;20653;-74
2024/02/20 00:13:52;;;;;;;1.10;0.90;;;4.70;99.90;;;;;;2037555;29;20263;-74
2024/02/20 00:14:53;;;;;;;1.30;0.97;;;4.70;99.90;;;;;;2052717;28;20313;-74
2024/02/20 00:15:54;;;;;;;0.82;0.70;;;4.70;99.90;;;;;;2046361;28;20232;-74
2024/02/20 00:16:55;;;;;;;1.87;1.10;;;4.70;99.90;;;;;;2038117;28;20725;-75
2024/02/20 00:17:56;;;;;;;1.33;1.23;;;4.70;99.90;;;;;;2045967;29;20481;-74
2024/02/20 00:18:57;;;;;;;1.00;0.90;;;4.80;99.90;;;;;;2044449;28;20721;-73
2024/02/20 00:19:57;;;;;;;0.87;0.87;;;4.80;99.90;;;;;;2057720;28;20253;-73
2024/02/20 00:20:59;;;;;;;11.43;1.07;;;4.90;99.90;;;;;;2040928;28;20300;-73
2024/02/20 00:21:59;;;;;;;0.73;0.52;;;4.80;99.90;;;;;;2046304;28;20717;-73
2024/02/20 00:23:00;;;;;;;0.70;0.70;;;4.70;99.90;;;;;;2061495;28;20199;-72
2024/02/20 00:24:01;;;;;;;11.53;0.87;;;4.70;99.90;;;;;;2045850;28;20253;-73
2024/02/20 00:25:02;;;;;;;0.70;0.70;;;4.70;99.90;;;;;;2046334;28;20184;-73
2024/02/20 00:26:03;;;;;;;1.33;0.85;;;4.70;99.90;;;;;;2061485;28;20672;-73
2024/02/20 00:27:04;;;;;;;0.50;0.50;;;4.70;99.90;;;;;;2055236;28;20218;-72
2024/02/20 00:28:05;;;;;;;0.60;0.60;;;4.70;99.90;;;;;;2045253;28;20198;-73
2024/02/20 00:29:06;;;;;;;0.50;0.50;;;4.70;99.90;;;;;;2046829;28;20191;-73
2024/02/20 00:30:07;;;;;;;1.70;0.60;;;4.70;99.90;;;;;;2052339;28;20218;-72
2024/02/20 00:31:09;;;;;;;0.50;0.50;;;4.80;99.90;;;;;;2046843;28;20192;-72
2024/02/20 00:32:09;;;;;;;0.57;0.55;;;4.80;99.90;;;;;;2054645;28;20204;-74
2024/02/20 00:33:10;;;;;;;1.97;0.40;;;4.80;99.90;;;;;;2053339;28;20202;-75
2024/02/20 00:34:11;;;;;;;0.50;0.50;;;4.90;99.90;;;;;;2045749;28;20199;-73
2024/02/20 00:35:11;;;;;;;0.60;0.60;;;4.90;99.90;;;;;;2030143;29;20193;-73
2024/02/20 00:36:12;;;;;;;1.40;0.40;;;4.80;99.90;;;;;;2047794;28;20211;-73
2024/02/20 00:37:14;;;;;;;0.40;0.40;;;4.80;99.90;;;;;;2054347;28;20195;-73
2024/02/20 00:38:14;;;;;;;0.40;0.40;;;4.70;99.90;;;;;;2044766;28;20187;-74
2024/02/20 00:39:16;;;;;;;0.47;0.47;;;4.70;99.90;;;;;;2045185;28;20252;-74
2024/02/20 00:40:18;;;;;;;0.50;0.40;;;4.70;99.90;;;;;;2044932;28;20625;-74
2024/02/20 00:41:18;;;;;;;0.90;0.40;;;4.90;99.90;;;;;;2060903;28;20233;-74
2024/02/20 00:42:19;;;;;;;0.47;0.47;;;4.80;99.90;;;;;;2059686;28;20280;-74
2024/02/20 00:43:20;;;;;;;0.40;0.40;;;4.80;99.90;;;;;;2050496;28;20663;-73
2024/02/20 00:44:20;;;;;;;0.40;0.40;;;4.90;99.90;;;;;;2046794;28;20242;-75
2024/02/20 00:45:21;;;;;;;0.40;0.40;;;4.90;99.90;;;;;;2042861;28;20227;-75
2024/02/20 00:46:22;;;;;;;0.80;0.60;;;4.90;99.90;;;;;;2046241;28;20725;-75
2024/02/20 00:47:24;;;;;;;1.23;0.50;;;4.90;99.90;;;;;;2049770;28;20223;-75
2024/02/20 00:48:26;;;;;;;0.50;0.50;;;4.90;99.90;;;;;;2047731;28;20302;-76
2024/02/20 00:49:26;;;;;;;0.40;0.40;;;4.90;99.90;;;;;;2047114;28;20227;-75
2024/02/20 00:50:28;;;;;;;0.50;0.50;;;5.00;99.90;;;;;;2050132;28;20320;-76
2024/02/20 00:51:29;;;;;;;0.43;0.43;;;5.00;99.90;;;;;;2055565;28;20237;-75
2024/02/20 00:52:30;;;;;;;0.40;0.40;;;5.00;99.90;;;;;;2053052;28;20234;-76
2024/02/20 00:53:30;;;;;;;0.33;0.33;;;5.00;99.90;;;;;;2058332;28;20752;-76
2024/02/20 00:54:31;;;;;;;0.57;0.57;;;5.10;99.90;;;;;;2056153;28;20250;-76
2024/02/20 00:55:32;;;;;;;0.43;0.40;;;5.10;99.90;;;;;;2048294;28;20220;-76
2024/02/20 00:56:32;;;;;;;0.50;0.50;;;5.10;99.90;;;;;;2060430;28;20674;-75
2024/02/20 00:57:33;;;;;;;0.47;0.40;;;5.20;99.90;;;;;;2049486;28;20258;-74
2024/02/20 00:58:34;;;;;;;0.40;0.40;;;5.20;99.90;;;;;;2050415;28;20278;-75
2024/02/20 00:59:34;;;;;;;0.50;0.50;;;5.10;99.90;;;;;;2053424;28;20302;-76
2024/02/20 01:00:35;;;;;;;0.77;0.50;;;5.10;99.90;;;;;;2049091;28;20712;-70
2024/02/20 01:01:37;;;;;;;0.40;0.40;;;5.10;99.90;;;;;;2048747;28;20310;-72
2024/02/20 01:02:38;;;;;;;1.83;0.70;;;5.10;99.90;;;;;;2039295;28;20413;-73
2024/02/20 01:03:41;;;;;;;0.40;0.40;;;5.10;99.90;;;;;;2046234;28;20232;-74
2024/02/20 01:04:42;;;;;;;0.50;0.50;;;5.10;99.90;;;;;;2043745;29;20690;-75
2024/02/20 01:05:42;;;;;;;0.70;0.70;;;5.10;99.90;;;;;;2036211;29;20470;-74
2024/02/20 01:06:43;;;;;;;0.70;0.57;;;5.10;99.90;;;;;;2046432;28;20287;-75
2024/02/20 01:07:44;;;;;;;0.70;0.70;;;5.10;99.90;;;;;;2045864;28;20236;-75
2024/02/20 01:08:45;;;;;;;0.60;0.60;;;5.10;99.90;;;;;;2046609;28;20266;-75
2024/02/20 01:09:45;;;;;;;0.40;0.40;;;5.10;99.90;;;;;;2055142;28;20254;-75
2024/02/20 01:10:46;;;;;;;0.53;0.53;;;5.10;99.90;;;;;;2055282;28;20225;-76
2024/02/20 01:11:47;;;;;;;0.50;0.50;;;5.10;99.90;;;;;;2061124;28;20226;-75
2024/02/20 01:12:47;;;;;;;0.50;0.43;;;5.10;99.90;;;;;;2052866;28;20234;-76
2024/02/20 01:13:48;;;;;;;0.50;0.50;;;5.20;99.90;;;;;;2037216;29;20800;-77
2024/02/20 01:14:49;;;;;;;0.70;0.70;;;5.10;99.90;;;;;;2046018;28;20645;-76
2024/02/20 01:15:49;;;;;;;0.60;0.60;;;5.10;99.90;;;;;;2054040;28;20235;-76
2024/02/20 01:16:50;;;;;;;1.17;1.07;;;5.10;99.90;;;;;;2055162;28;20223;-74
2024/02/20 01:17:52;;;;;;;20.37;1.13;;;5.20;99.90;;;;;;2055164;28;20788;-76
2024/02/20 01:18:53;;;;;;;0.60;0.60;;;5.20;99.90;;;;;;2046212;28;20314;-76
2024/02/20 01:19:54;;;;;;;0.60;0.60;;;5.20;99.90;;;;;;2047178;28;20368;-76
2024/02/20 01:20:55;;;;;;;0.50;0.50;;;5.10;99.90;;;;;;2053891;28;20483;-76
2024/02/20 01:21:56;;;;;;;0.60;0.50;;;5.20;99.90;;;;;;2039393;28;20725;-76
2024/02/20 01:22:56;;;;;;;1.67;0.43;;;5.20;99.90;;;;;;2045700;28;20220;-75
2024/02/20 01:23:57;;;;;;;0.60;0.50;;;5.30;99.90;;;;;;2062848;28;20221;-75
2024/02/20 01:24:58;;;;;;;0.77;0.67;;;5.20;99.90;;;;;;2047064;28;20214;-76
2024/02/20 01:25:58;;;;;;;0.50;0.50;;;5.20;99.90;;;;;;2050405;28;20212;-76
2024/02/20 01:26:59;;;;;;;0.47;0.47;;;5.30;99.90;;;;;;2061955;28;20686;-75
2024/02/20 01:28:01;;;;;;;0.70;0.60;;;5.30;99.90;;;;;;2046389;28;20607;-75
2024/02/20 01:29:01;;;;;;;0.70;0.70;;;5.30;99.90;;;;;;2046446;28;20249;-75
2024/02/20 01:30:02;;;;;;;0.50;0.50;;;5.20;99.90;;;;;;2038824;28;20208;-76
2024/02/20 01:31:03;;;;;;;0.55;0.55;;;5.20;99.90;;;;;;2038620;28;20235;-77
2024/02/20 01:32:04;;;;;;;0.40;0.40;;;5.10;99.90;;;;;;2042501;28;20330;-76
2024/02/20 01:33:07;;;;;;;0.55;0.55;;;5.10;99.90;;;;;;2046376;28;20409;-76
2024/02/20 01:34:07;;;;;;;1.88;0.50;;;5.10;99.90;;;;;;2032390;28;20185;-76
2024/02/20 01:35:08;;;;;;;0.40;0.40;;;5.10;99.90;;;;;;2038413;28;20231;-76
2024/02/20 01:36:09;;;;;;;0.60;0.60;;;5.20;99.90;;;;;;2036310;28;20238;-76
2024/02/20 01:37:10;;;;;;;0.57;0.50;;;5.20;99.90;;;;;;2039524;29;20176;-77
2024/02/20 01:38:11;;;;;;;0.50;0.50;;;5.30;99.90;;;;;;2052835;28;20270;-76
2024/02/20 01:39:12;;;;;;;1.63;0.60;;;5.30;99.90;;;;;;2045155;28;20292;-76
2024/02/20 01:40:13;;;;;;;1.30;0.50;;;5.20;99.90;;;;;;2038175;29;20817;-76
2024/02/20 01:41:13;;;;;;;1.57;0.90;;;5.10;99.90;;;;;;2046265;28;20579;-77
2024/02/20 01:42:14;;;;;;;0.63;0.40;;;5.00;99.90;;;;;;2046997;28;20200;-76
2024/02/20 01:43:15;;;;;;;0.63;0.40;;;5.00;99.90;;;;;;2051456;28;20186;-76
2024/02/20 01:44:16;;;;;;;2.10;0.60;;;5.00;99.90;;;;;;2038206;29;20195;-76
2024/02/20 01:45:17;;;;;;;0.73;0.50;;;4.90;99.90;;;;;;2037805;28;20262;-77
2024/02/20 01:46:22;;;;;;;1.07;0.77;;;5.00;99.90;;;;;;2052189;28;20239;-76
2024/02/20 01:47:23;;;;;;;2.05;0.60;;;5.00;99.90;;;;;;2056502;28;20700;-76
2024/02/20 01:48:23;;;;;;;1.50;0.50;;;5.00;99.90;;;;;;2037829;28;20225;-76
2024/02/20 01:49:25;;;;;;;0.60;0.60;;;5.10;99.90;;;;;;2037969;28;20255;-76
2024/02/20 01:50:26;;;;;;;0.50;0.50;;;5.00;99.90;;;;;;2034348;28;20232;-76
2024/02/20 01:51:30;;;;;;;0.50;0.40;;;5.00;99.90;;;;;;2046311;28;20219;-76
2024/02/20 01:52:30;;;;;;;0.50;0.50;;;5.00;99.90;;;;;;2057743;28;20233;-77
2024/02/20 01:53:31;;;;;;;0.63;0.63;;;5.00;99.90;;;;;;2050462;28;20226;-76
2024/02/20 01:54:32;;;;;;;0.80;0.63;;;5.00;99.90;;;;;;2045988;28;20230;-76
2024/02/20 01:55:33;;;;;;;0.50;0.50;;;5.10;99.90;;;;;;2056855;28;20226;-76
2024/02/20 01:56:35;;;;;;;0.50;0.50;;;5.10;99.90;;;;;;2053943;28;20471;-76
2024/02/20 01:57:36;;;;;;;1.35;0.60;;;5.20;99.90;;;;;;2038191;28;20645;-76
2024/02/20 01:58:37;;;;;;;0.60;0.60;;;5.30;99.90;;;;;;2048393;28;20264;-76
2024/02/20 01:59:38;;;;;;;0.40;0.40;;;5.30;99.90;;;;;;2060238;28;20221;-77
2024/02/20 02:00:38;;;;;;;0.70;0.70;;;5.40;99.90;;;;;;2054795;28;20247;-76
2024/02/20 02:01:39;;;;;;;0.53;0.53;;;5.40;99.90;;;;;;2048368;28;20227;-76
2024/02/20 02:02:41;;;;;;;0.97;0.73;;;5.60;99.90;;;;;;2048766;28;20223;-76
2024/02/20 02:03:42;;;;;;;0.93;0.70;;;5.50;99.90;;;;;;2044777;28;20274;-76
2024/02/20 02:04:42;;;;;;;0.57;0.50;;;5.50;99.90;;;;;;2044960;28;20348;-77
2024/02/20 02:05:43;;;;;;;2.17;0.67;;;5.40;99.90;;;;;;2044809;28;20227;-77
2024/02/20 02:06:44;;;;;;;1.30;1.13;;;5.40;99.90;;;;;;2039305;28;20225;-76
2024/02/20 02:07:44;;;;;;;3.23;1.70;;;5.40;99.90;;;;;;2041588;29;20224;-76
2024/02/20 02:08:45;;;;;;;6.07;1.70;;;5.30;99.90;;;;;;2052718;28;20662;-76
2024/02/20 02:09:46;;;;;;;1.93;1.50;;;5.30;99.90;;;;;;2052111;28;20234;-77
2024/02/20 02:10:46;;;;;;;1.97;1.20;;;5.20;99.90;;;;;;2046890;28;20274;-76
2024/02/20 02:11:47;;;;;;;2.13;1.43;;;5.10;99.90;;;;;;2043994;28;20219;-76
2024/02/20 02:12:48;;;;;;;3.27;1.17;;;5.20;99.90;;;;;;2037879;28;20220;-76
2024/02/20 02:13:48;;;;;;;5.03;1.90;;;5.20;99.90;;;;;;2044702;28;20225;-76
2024/02/20 02:14:49;;;;;;;2.47;1.73;;;5.20;99.90;;;;;;2051349;28;20218;-76
2024/02/20 02:15:50;;;;;;;4.77;2.23;;;5.20;99.90;;;;;;2053883;28;20289;-76
2024/02/20 02:16:50;;;;;;;2.80;1.80;;;5.20;99.90;;;;;;2050316;28;20216;-76
2024/02/20 02:17:51;;;;;;;3.30;2.03;;;5.20;99.90;;;;;;2051822;28;20262;-75
2024/02/20 02:18:52;;;;;;;3.73;2.13;;;5.20;99.90;;;;;;2044105;29;20227;-76
2024/02/20 02:19:52;;;;;;;4.40;2.60;;;5.10;99.90;;;;;;2053069;28;20591;-76
2024/02/20 02:20:53;;;;;;;3.80;2.27;;;5.00;99.90;;;;;;2049962;28;20228;-75
2024/02/20 02:21:54;;;;;;;2.10;1.87;;;4.90;99.90;;;;;;2036335;29;20224;-75
2024/02/20 02:22:54;;;;;;;3.90;2.23;;;4.90;99.90;;;;;;2060652;28;20278;-75
2024/02/20 02:23:55;;;;;;;5.50;2.47;;;5.00;99.90;;;;;;2060730;28;20257;-75
2024/02/20 02:24:56;;;;;;;2.87;2.40;;;5.00;99.90;;;;;;2044699;28;20748;-75
2024/02/20 02:25:56;;;;;;;4.00;2.47;;;5.00;99.90;;;;;;2043938;28;20223;-75
2024/02/20 02:26:57;;;;;;;2.70;1.60;;;5.00;99.90;;;;;;2045879;28;20192;-75
2024/02/20 02:27:58;;;;;;;4.13;2.07;;;4.90;99.90;;;;;;2044386;28;20397;-76
2024/02/20 02:28:58;;;;;;;2.83;1.90;;;5.00;99.90;;;;;;2046457;28;20211;-76
2024/02/20 02:29:59;;;;;;;4.70;2.43;;;5.00;99.90;;;;;;2040933;28;20639;-75
2024/02/20 02:31:00;;;;;;;3.63;2.47;;;5.00;99.90;;;;;;2045861;28;20227;-75
2024/02/20 02:32:00;;;;;;;3.17;2.30;;;5.00;99.90;;;;;;2044949;28;20272;-75
2024/02/20 02:33:01;;;;;;;3.40;2.27;;;5.00;99.90;;;;;;2044925;28;20218;-75
2024/02/20 02:34:02;;;;;;;3.73;2.63;;;4.90;99.90;;;;;;2060178;28;20226;-75
2024/02/20 02:35:03;;;;;;;5.23;2.93;;;5.00;99.90;;;;;;2044664;28;20191;-77
2024/02/20 02:36:04;;;;;;;6.45;2.92;;;5.00;99.90;;;;;;2046251;28;20261;-75
2024/02/20 02:37:06;;;;;;;4.07;2.60;;;5.00;99.90;;;;;;2045291;28;20190;-75
2024/02/20 02:38:07;;;;;;;4.30;2.40;;;5.00;99.90;;;;;;2054054;28;20444;-75
2024/02/20 02:39:08;;;;;;;4.73;2.90;;;5.00;99.90;;;;;;2045328;28;20561;-76
2024/02/20 02:40:09;;;;;;;6.63;3.07;;;4.90;99.90;;;;;;2034522;28;20195;-75
2024/02/20 02:41:12;;;;;;;4.63;1.97;;;4.90;99.90;;;;;;2046367;28;20421;-76
2024/02/20 02:42:13;;;;;;;4.65;2.30;;;4.80;99.90;;;;;;2038269;28;20196;-75
2024/02/20 02:43:14;;;;;;;3.40;2.70;;;4.70;99.90;;;;;;2033391;29;20232;-75
2024/02/20 02:44:14;;;;;;;2.90;2.00;;;4.70;99.90;;;;;;2048812;28;20191;-76
2024/02/20 02:45:15;;;;;;;2.60;1.87;;;4.60;99.90;;;;;;2050593;28;20184;-76
2024/02/20 02:46:16;;;;;;;3.60;2.33;;;4.60;99.90;;;;;;2035444;29;20707;-75
2024/02/20 02:47:17;;;;;;;3.13;1.90;;;4.60;99.90;;;;;;2037014;28;20843;-76
2024/02/20 02:48:18;;;;;;;10.23;3.40;;;4.60;99.90;;;;;;2044385;28;20287;-75
2024/02/20 02:49:20;;;;;;;3.57;2.30;;;4.60;99.90;;;;;;2033191;29;20930;-76
2024/02/20 02:50:21;;;;;;;3.75;2.20;;;4.50;99.90;;;;;;2032581;28;20686;-76
2024/02/20 02:51:21;;;;;;;3.07;1.70;;;4.40;99.90;;;;;;2046080;28;20231;-76
2024/02/20 02:52:22;;;;;;;2.97;1.80;;;4.40;99.90;;;;;;2048340;28;20697;-77
2024/02/20 02:53:24;;;;;;;3.07;2.53;;;4.40;99.90;;;;;;2049377;28;20223;-77
2024/02/20 02:54:25;;;;;;;3.72;2.88;;;4.50;99.90;;;;;;2056279;28;20226;-76
2024/02/20 02:55:27;;;;;;;2.22;1.58;;;4.50;99.90;;;;;;2057079;28;20309;-76
2024/02/20 02:56:30;;;;;;;3.90;1.85;;;4.60;99.90;;;;;;2052777;28;20228;-76
2024/02/20 02:57:31;;;;;;;4.70;2.45;;;4.60;99.90;;;;;;2039723;28;20237;-76
2024/02/20 02:58:32;;;;;;;4.60;2.30;;;4.60;99.90;;;;;;2046464;28;20224;-75
2024/02/20 02:59:32;;;;;;;4.53;2.53;;;4.70;99.90;;;;;;2054595;28;20226;-76
2024/02/20 03:00:33;;;;;;;3.03;2.07;;;4.80;99.90;;;;;;2051476;28;20230;-77
2024/02/20 03:01:34;;;;;;;3.73;2.27;;;4.90;99.90;;;;;;2040746;28;20256;-76
2024/02/20 03:02:35;;;;;;;4.70;2.23;;;4.90;99.90;;;;;;2043588;29;20306;-76
2024/02/20 03:03:36;;;;;;;2.42;1.73;;;4.90;99.90;;;;;;2046366;28;20350;-77
2024/02/20 03:04:37;;;;;;;4.25;2.50;;;5.00;99.90;;;;;;2048968;28;20298;-76
2024/02/20 03:05:37;;;;;;;6.70;2.00;;;5.00;99.90;;;;;;2052148;28;20704;-77
2024/02/20 03:06:40;;;;;;;4.50;2.80;;;4.90;99.90;;;;;;2044238;28;20604;-77
2024/02/20 03:07:40;;;;;;;3.15;2.20;;;4.90;99.90;;;;;;2043692;28;20230;-76
2024/02/20 03:08:47;;;;;;;4.50;1.73;;;4.90;99.90;;;;;;2042226;28;20632;-76
2024/02/20 03:09:48;;;;;;;4.70;2.08;;;5.00;99.90;;;;;;2049451;28;20231;-77
2024/02/20 03:10:49;;;;;;;2.53;2.07;;;4.90;99.90;;;;;;2054040;28;20314;-77
2024/02/20 03:11:49;;;;;;;3.60;2.47;;;5.00;99.90;;;;;;2053894;28;20303;-77
2024/02/20 03:12:52;;;;;;;4.77;2.10;;;4.90;99.90;;;;;;2061423;28;20218;-77
2024/02/20 03:13:52;;;;;;;2.42;2.10;;;4.90;99.90;;;;;;2031231;28;20254;-76
2024/02/20 03:14:54;;;;;;;5.07;2.37;;;5.00;99.90;;;;;;2037521;29;20256;-76
2024/02/20 03:15:54;;;;;;;3.47;2.25;;;5.00;99.90;;;;;;2055164;28;20249;-77
2024/02/20 03:16:55;;;;;;;4.00;2.80;;;5.00;99.90;;;;;;2051918;28;20594;-76
2024/02/20 03:17:56;;;;;;;8.10;3.07;;;5.10;99.90;;;;;;2061830;28;20241;-76
2024/02/20 03:18:56;;;;;;;2.83;2.17;;;5.20;99.90;;;;;;2060159;28;22187;-76
2024/02/20 03:19:58;;;;;;;5.60;2.43;;;5.20;99.90;;;;;;2046746;28;20243;-75
2024/02/20 03:21:02;;;;;;;4.90;2.33;;;5.10;99.90;;;;;;2054229;28;20194;-77
2024/02/20 03:22:03;;;;;;;5.07;2.63;;;5.10;99.90;;;;;;2037471;28;20580;-76
2024/02/20 03:23:04;;;;;;;8.83;2.83;;;5.10;99.90;;;;;;2039356;28;20192;-77
2024/02/20 03:24:05;;;;;;;3.23;2.20;;;5.10;99.90;;;;;;2038882;28;20225;-76
2024/02/20 03:25:07;;;;;;;2.45;1.88;;;5.00;99.90;;;;;;2046451;28;20195;-77
2024/02/20 03:26:07;;;;;;;5.00;1.98;;;4.90;99.90;;;;;;2046046;28;20737;-76
2024/02/20 03:27:10;;;;;;;7.70;2.10;;;4.90;99.90;;;;;;2054807;28;20191;-77
2024/02/20 03:28:13;;;;;;;3.13;2.17;;;4.80;99.90;;;;;;2057458;28;20179;-76
2024/02/20 03:29:13;;;;;;;3.15;2.00;;;4.80;99.90;;;;;;2054089;28;20213;-78
2024/02/20 03:30:14;;;;;;;6.20;3.03;;;4.80;99.90;;;;;;2062198;28;20218;-75
2024/02/20 03:31:15;;;;;;;2.80;2.17;;;4.90;99.90;;;;;;2058486;28;20248;-76
2024/02/20 03:32:16;;;;;;;5.53;2.97;;;4.90;99.90;;;;;;2050542;28;20402;-76
2024/02/20 03:33:18;;;;;;;2.55;2.22;;;4.80;99.90;;;;;;2055275;28;20354;-76
2024/02/20 03:34:19;;;;;;;4.75;2.13;;;4.70;99.90;;;;;;2058349;28;20336;-76
2024/02/20 03:35:23;;;;;;;4.20;2.40;;;4.70;99.90;;;;;;2045546;28;20242;-76
2024/02/20 03:36:23;;;;;;;2.47;2.00;;;4.70;99.90;;;;;;2058109;28;20746;-76
2024/02/20 03:37:24;;;;;;;6.73;2.23;;;4.60;99.90;;;;;;2046402;28;20286;-76
2024/02/20 03:38:25;;;;;;;4.30;2.17;;;4.60;99.90;;;;;;2051629;28;20310;-77
2024/02/20 03:39:27;;;;;;;2.90;2.00;;;4.60;99.90;;;;;;2043761;28;20222;-76
2024/02/20 03:40:27;;;;;;;3.35;1.60;;;4.50;99.90;;;;;;2051726;28;20719;-76
2024/02/20 03:41:28;;;;;;;3.03;1.60;;;4.50;99.90;;;;;;2055708;28;20235;-76
2024/02/20 03:42:30;;;;;;;2.53;1.70;;;4.50;99.90;;;;;;2040978;28;20274;-77
2024/02/20 03:43:32;;;;;;;5.85;2.03;;;4.50;99.90;;;;;;2045188;28;20227;-76
2024/02/20 03:44:37;;;;;;;4.53;1.98;;;4.50;99.90;;;;;;2043753;28;20228;-76
2024/02/20 03:45:37;;;;;;;4.78;1.85;;;4.60;99.90;;;;;;2054353;28;20313;-77
2024/02/20 03:46:38;;;;;;;8.60;2.73;;;4.60;99.90;;;;;;2057776;28;20700;-77
2024/02/20 03:47:39;;;;;;;3.13;2.13;;;4.70;99.90;;;;;;2039371;28;20288;-76
2024/02/20 03:48:40;;;;;;;2.73;1.90;;;4.70;99.90;;;;;;2043570;28;20225;-76
2024/02/20 03:49:40;;;;;;;4.77;1.80;;;4.60;99.90;;;;;;2052619;28;20301;-76
2024/02/20 03:50:41;;;;;;;2.80;2.07;;;4.60;99.90;;;;;;2053204;28;20607;-76
2024/02/20 03:51:44;;;;;;;4.77;2.07;;;4.50;99.90;;;;;;2037109;29;20275;-77
2024/02/20 03:52:44;;;;;;;4.45;2.00;;;4.50;99.90;;;;;;2030881;29;20733;-76
2024/02/20 03:53:45;;;;;;;8.37;1.80;;;4.50;99.90;;;;;;2037741;29;20259;-77
2024/02/20 03:54:46;;;;;;;6.00;1.60;;;4.50;99.90;;;;;;2051432;28;20301;-77
2024/02/20 03:55:48;;;;;;;2.67;1.60;;;4.40;99.90;;;;;;2053470;28;20226;-77
2024/02/20 03:56:49;;;;;;;6.47;1.92;;;4.40;99.90;;;;;;2056252;28;20230;-77
2024/02/20 03:57:50;;;;;;;2.30;1.87;;;4.30;99.90;;;;;;2060945;28;20243;-77
2024/02/20 03:58:50;;;;;;;3.90;2.00;;;4.20;99.90;;;;;;2060649;28;20218;-77
2024/02/20 03:59:55;;;;;;;2.80;1.73;;;4.20;99.90;;;;;;2060210;28;20218;-76
2024/02/20 04:00:56;;;;;;;3.47;2.55;;;4.20;99.90;;;;;;2053376;28;20223;-77
2024/02/20 04:01:56;;;;;;;4.57;2.10;;;4.20;99.90;;;;;;2044833;28;20622;-75
2024/02/20 04:02:57;;;;;;;5.53;2.20;;;4.10;99.90;;;;;;2045655;28;20197;-76
2024/02/20 04:03:58;;;;;;;3.90;2.43;;;4.10;99.90;;;;;;2044564;28;20184;-76
2024/02/20 04:04:58;;;;;;;3.43;1.97;;;4.10;99.90;;;;;;2053354;28;20700;-77
2024/02/20 04:05:59;;;;;;;10.67;2.30;;;4.10;99.90;;;;;;2054297;28;20230;-77
2024/02/20 04:07:01;;;;;;;2.07;1.80;;;4.20;99.90;;;;;;2053303;28;20187;-77
2024/02/20 04:08:02;;;;;;;7.55;2.03;;;4.20;99.90;;;;;;2045938;28;20189;-77
2024/02/20 04:09:04;;;;;;;3.07;2.00;;;4.20;99.90;;;;;;2045384;28;20203;-77
2024/02/20 04:10:08;;;;;;;7.13;2.25;;;4.20;99.90;;;;;;2060295;28;20206;-77
2024/02/20 04:11:08;;;;;;;11.38;2.28;;;4.20;99.90;;;;;;2053052;28;20190;-77
2024/02/20 04:12:09;;;;;;;5.23;2.10;;;4.20;99.90;;;;;;2055320;28;20270;-77
2024/02/20 04:13:10;;;;;;;5.17;2.27;;;4.20;99.90;;;;;;2059862;28;20324;-77
2024/02/20 04:14:11;;;;;;;5.03;1.80;;;4.30;99.90;;;;;;2042885;28;20656;-77
2024/02/20 04:15:13;;;;;;;2.37;1.77;;;4.30;99.90;;;;;;2047079;28;20261;-77
2024/02/20 04:16:14;;;;;;;6.45;2.05;;;4.30;99.90;;;;;;2045929;28;20207;-77
2024/02/20 04:17:15;;;;;;;4.63;2.37;;;4.30;99.90;;;;;;2048210;28;20759;-78
2024/02/20 04:18:15;;;;;;;3.00;2.57;;;4.30;99.90;;;;;;2059308;28;20272;-77
2024/02/20 04:19:16;;;;;;;2.27;1.80;;;4.30;99.90;;;;;;2051592;28;20291;-76
2024/02/20 04:20:17;;;;;;;5.53;2.50;;;4.30;99.90;;;;;;2043487;28;20238;-77
2024/02/20 04:21:17;;;;;;;3.80;2.10;;;4.30;99.90;;;;;;2053896;28;20321;-77
2024/02/20 04:22:18;;;;;;;4.10;2.10;;;4.30;99.90;;;;;;2050326;28;20781;-77
2024/02/20 04:23:19;;;;;;;3.97;2.10;;;4.30;99.90;;;;;;2041023;29;20310;-77
2024/02/20 04:24:19;;;;;;;3.83;1.93;;;4.20;99.90;;;;;;2045467;28;20315;-77
2024/02/20 04:25:20;;;;;;;6.90;2.40;;;4.30;99.90;;;;;;2057587;28;20321;-77
2024/02/20 04:26:21;;;;;;;4.33;1.97;;;4.30;99.90;;;;;;2045764;28;20972;-77
2024/02/20 04:27:22;;;;;;;4.93;2.40;;;4.30;99.90;;;;;;2051427;28;20610;-77
2024/02/20 04:28:22;;;;;;;3.53;1.90;;;4.30;99.90;;;;;;2056887;28;20237;-77
2024/02/20 04:29:23;;;;;;;8.53;2.50;;;4.30;99.90;;;;;;2057510;28;20361;-77
2024/02/20 04:30:24;;;;;;;4.13;2.30;;;4.20;99.90;;;;;;2049494;28;20238;-76
2024/02/20 04:31:24;;;;;;;3.90;2.90;;;4.20;99.90;;;;;;2052318;28;20377;-77
2024/02/20 04:32:25;;;;;;;8.47;2.13;;;4.20;99.90;;;;;;2051520;28;20246;-77
2024/02/20 04:33:26;;;;;;;4.93;2.20;;;4.20;99.90;;;;;;2049554;28;20346;-77
2024/02/20 04:34:26;;;;;;;5.30;2.40;;;4.20;99.90;;;;;;2046906;28;20243;-77
2024/02/20 04:35:27;;;;;;;5.73;2.20;;;4.10;99.90;;;;;;2045392;28;20299;-77
2024/02/20 04:36:28;;;;;;;7.93;2.53;;;4.10;99.90;;;;;;2048560;28;20815;-76
2024/02/20 04:37:28;;;;;;;4.80;2.17;;;4.10;99.90;;;;;;2051185;28;20409;-77
2024/02/20 04:38:29;;;;;;;4.83;2.00;;;4.10;99.90;;;;;;2050925;28;20261;-77
2024/02/20 04:39:30;;;;;;;5.67;2.10;;;4.20;99.90;;;;;;2038831;29;20262;-78
2024/02/20 04:40:32;;;;;;;3.37;1.90;;;4.10;99.90;;;;;;2046071;28;20231;-77
2024/02/20 04:41:33;;;;;;;11.48;3.20;;;4.10;99.90;;;;;;2054598;28;20822;-77
2024/02/20 04:42:33;;;;;;;10.17;3.17;;;4.00;99.90;;;;;;2053502;28;20434;-77
2024/02/20 04:43:36;;;;;;;5.40;2.27;;;4.00;99.90;;;;;;2046857;28;20231;-77
2024/02/20 04:44:37;;;;;;;8.85;3.08;;;4.00;99.90;;;;;;2045031;28;20885;-77
2024/02/20 04:45:38;;;;;;;4.77;2.13;;;4.00;99.90;;;;;;2050161;28;20301;-77
2024/02/20 04:46:39;;;;;;;8.80;3.17;;;4.00;99.90;;;;;;2053775;28;20289;-77
2024/02/20 04:47:40;;;;;;;3.87;2.00;;;4.00;99.90;;;;;;2053934;28;20230;-77
2024/02/20 04:48:40;;;;;;;6.40;2.90;;;4.10;99.90;;;;;;2053513;28;20250;-77
2024/02/20 04:49:41;;;;;;;7.00;2.20;;;4.20;99.90;;;;;;2053860;28;20297;-77
2024/02/20 04:50:42;;;;;;;9.03;2.83;;;4.20;99.90;;;;;;2051733;28;20233;-77
2024/02/20 04:51:43;;;;;;;11.95;2.58;;;4.20;99.90;;;;;;2049959;28;20231;-76
2024/02/20 04:52:43;;;;;;;5.47;3.30;;;4.20;99.90;;;;;;2038681;29;20299;-77
2024/02/20 04:53:44;;;;;;;4.90;2.53;;;4.20;99.90;;;;;;2042684;29;20275;-77
2024/02/20 04:54:45;;;;;;;3.37;2.10;;;4.30;99.90;;;;;;2041102;29;20223;-77
2024/02/20 04:55:46;;;;;;;6.60;2.47;;;4.20;99.90;;;;;;2037722;29;20796;-77
2024/02/20 04:56:46;;;;;;;20.53;2.20;;;4.30;99.90;;;;;;2045227;28;20227;-77
2024/02/20 04:57:47;;;;;;;6.93;2.47;;;4.30;99.90;;;;;;2053745;28;20223;-76
2024/02/20 04:58:47;;;;;;;5.50;2.57;;;4.10;99.90;;;;;;2052453;28;20570;-77
2024/02/20 04:59:49;;;;;;;5.27;1.93;;;4.10;99.90;;;;;;2052199;28;20249;-77
2024/02/20 05:00:50;;;;;;;6.15;2.35;;;4.00;99.90;;;;;;2046788;28;20216;-76
2024/02/20 05:01:51;;;;;;;9.60;3.47;;;4.00;99.90;;;;;;2044838;28;20298;-77
2024/02/20 05:02:52;;;;;;;3.67;2.13;;;4.10;99.90;;;;;;2045534;28;20739;-76
2024/02/20 05:03:53;;;;;;;4.67;2.33;;;4.00;99.90;;;;;;2046763;28;20280;-77
2024/02/20 05:04:53;;;;;;;14.93;2.87;;;4.00;99.90;;;;;;2045329;28;20275;-77
2024/02/20 05:05:54;;;;;;;3.67;2.17;;;4.00;99.90;;;;;;2058144;28;20226;-76
2024/02/20 05:06:55;;;;;;;6.70;2.73;;;4.10;99.90;;;;;;2056095;28;20222;-76
2024/02/20 05:07:55;;;;;;;5.80;2.73;;;4.10;99.90;;;;;;2053545;28;20227;-76
2024/02/20 05:08:56;;;;;;;6.20;2.63;;;4.10;99.90;;;;;;2062021;28;20310;-77
2024/02/20 05:09:57;;;;;;;11.57;2.80;;;4.10;99.90;;;;;;2037215;28;20278;-77
2024/02/20 05:10:57;;;;;;;9.40;2.20;;;4.20;99.90;;;;;;2046061;28;20178;-76
2024/02/20 05:11:59;;;;;;;4.67;2.40;;;4.20;99.90;;;;;;2044303;28;20287;-76
2024/02/20 05:13:00;;;;;;;4.35;1.85;;;4.10;99.90;;;;;;2029988;29;20181;-76
2024/02/20 05:14:01;;;;;;;11.63;3.23;;;4.20;99.90;;;;;;2036827;28;20223;-77
2024/02/20 05:15:03;;;;;;;9.57;2.60;;;4.20;99.90;;;;;;2029596;29;20276;-77
2024/02/20 05:16:04;;;;;;;5.30;2.55;;;4.20;99.90;;;;;;2045157;28;20231;-77
2024/02/20 05:17:05;;;;;;;7.32;2.45;;;4.10;99.90;;;;;;2039354;28;20686;-76
2024/02/20 05:18:05;;;;;;;7.60;2.60;;;4.20;99.90;;;;;;2060860;28;20186;-77
2024/02/20 05:19:06;;;;;;;5.63;2.33;;;4.20;99.90;;;;;;2052621;28;20633;-76
2024/02/20 05:20:07;;;;;;;9.40;3.50;;;4.20;99.90;;;;;;2037388;28;20234;-77
2024/02/20 05:21:08;;;;;;;9.05;3.70;;;4.20;99.90;;;;;;2045203;28;20227;-77
2024/02/20 05:22:09;;;;;;;5.70;2.80;;;4.30;99.90;;;;;;2055019;28;20275;-77